^^
Datos históricos de la estación: Murcia-Puente Tocinos
Diario Informe para Mayo 16, 2021 Unidades:  Métrico    Ingés   Ambas
Diario Semanal Mensual Anual
  Máxima: Mínima: Promedio:
Temperatura: 34.3 °C 20.3 °C 26.8 °C
Punto de rocio: 11.8 °C 7.1 °C 9.3 °C
Humedad: 55.7% 20% 36%
Velocidad viento: 20.1km/h 2.2km/h 9km/h
Racha viento: 35.9km/h - -
Viento- - Sur
Presión: 1012.6 hPa 1008.2 hPa -
Precipitación: 0.0 mm    
 
 
Tabla de datos para Mayo 16, 2021
Hora Temperatura Punto de rocio Presión Viento Velocidad viento Racha viento Humedad Intensidad lluvia(por hora) Nubes
00:04 23.1 °C 11.8 °C 1011.8 hPa OSO 3.2 km/h 7.4 km/h 49% 0.0 mm
00:09 23.1 °C 11.8 °C 1011.8 hPa Oeste 3 km/h 8 km/h 49% 0.0 mm
00:14 23.1 °C 11.8 °C 1011.9 hPa ONO 2.9 km/h 5.8 km/h 49% 0.0 mm
00:19 23 °C 11.7 °C 1011.9 hPa Oeste 2.9 km/h 6.9 km/h 49% 0.0 mm
00:24 22.9 °C 11.6 °C 1011.9 hPa OSO 2.9 km/h 9.5 km/h 49% 0.0 mm
00:29 22.8 °C 11.5 °C 1012.1 hPa SSO 3.9 km/h 9.7 km/h 49% 0.0 mm
00:34 22.8 °C 11.7 °C 1012.1 hPa Sur 4.7 km/h 12.2 km/h 49.6% 0.0 mm
00:39 22.7 °C 11.7 °C 1012.1 hPa Sur 5.8 km/h 13 km/h 50% 0.0 mm
00:44 22.7 °C 11.7 °C 1012.1 hPa SSE 6.5 km/h 14.8 km/h 50% 0.0 mm
00:49 22.5 °C 11.6 °C 1012.0 hPa SE 8.5 km/h 17.2 km/h 50.1% 0.0 mm
00:54 22.3 °C 11.7 °C 1012.0 hPa SSE 9.5 km/h 17.7 km/h 51% 0.0 mm
00:59 22 °C 11.6 °C 1012.0 hPa SSE 9.5 km/h 14.5 km/h 51.5% 0.0 mm
01:04 21.8 °C 11.5 °C 1012.0 hPa SSE 9.5 km/h 16.4 km/h 52% 0.0 mm
01:09 21.7 °C 11.5 °C 1012.0 hPa SSE 10 km/h 16.7 km/h 52.5% 0.0 mm
01:14 21.6 °C 11.6 °C 1012.0 hPa Sur 10.3 km/h 16.1 km/h 53% 0.0 mm
01:19 21.5 °C 11.5 °C 1011.9 hPa Sur 9.1 km/h 11.9 km/h 53% 0.0 mm
01:24 21.6 °C 11.6 °C 1011.9 hPa Sur 8.4 km/h 11.9 km/h 53% 0.0 mm
01:29 21.6 °C 11.6 °C 1011.9 hPa SSO 7.9 km/h 11.9 km/h 53% 0.0 mm
01:34 21.6 °C 11.6 °C 1011.9 hPa SSO 7.6 km/h 13.7 km/h 53% 0.0 mm
01:39 21.7 °C 11.6 °C 1011.9 hPa SSO 6.7 km/h 14.5 km/h 52.6% 0.0 mm
01:44 21.7 °C 11.4 °C 1012.0 hPa SO 6.5 km/h 11.3 km/h 52% 0.0 mm
01:49 21.8 °C 11.5 °C 1012.0 hPa SO 6.5 km/h 11.3 km/h 52% 0.0 mm
01:54 21.8 °C 11.5 °C 1012.0 hPa SO 6.5 km/h 9.7 km/h 52% 0.0 mm
01:59 21.8 °C 11.4 °C 1012.0 hPa OSO 5.5 km/h 9.7 km/h 52% 0.0 mm
02:04 21.7 °C 11.4 °C 1011.9 hPa OSO 5 km/h 8 km/h 52% 0.0 mm
02:09 21.6 °C 11.4 °C 1011.9 hPa SO 4.3 km/h 8 km/h 52.6% 0.0 mm
02:14 21.4 °C 11.4 °C 1012.0 hPa SSO 3.9 km/h 8 km/h 53% 0.0 mm
02:19 21.3 °C 11.3 °C 1012.0 hPa SSE 3.9 km/h 7.4 km/h 53% 0.0 mm
02:24 21.3 °C 11.3 °C 1012.0 hPa SE 3.9 km/h 8 km/h 53% 0.0 mm
02:29 21.3 °C 11.3 °C 1012.0 hPa Sur 3.9 km/h 8.4 km/h 53% 0.0 mm
02:34 21.3 °C 11.3 °C 1012.0 hPa Sur 3.9 km/h 8 km/h 53% 0.0 mm
02:39 21.3 °C 11.3 °C 1012.0 hPa Sur 4.4 km/h 8.4 km/h 52.7% 0.0 mm
02:44 21.3 °C 11.2 °C 1012.0 hPa SSE 4.7 km/h 10 km/h 52.5% 0.0 mm
02:49 21.3 °C 11.2 °C 1011.8 hPa SSE 5.3 km/h 13 km/h 52.7% 0.0 mm
02:54 21.2 °C 11.2 °C 1011.8 hPa Sur 5.8 km/h 12.9 km/h 53% 0.0 mm
02:59 21.1 °C 11.2 °C 1011.8 hPa SO 7 km/h 11.3 km/h 53% 0.0 mm
03:04 21.1 °C 11.2 °C 1011.6 hPa SSO 7.6 km/h 13 km/h 53% 0.0 mm
03:09 21.1 °C 11.2 °C 1011.6 hPa SSO 6.8 km/h 13 km/h 53% 0.0 mm
03:14 21.1 °C 11.2 °C 1011.6 hPa SSO 6.5 km/h 13 km/h 53% 0.0 mm
03:19 21.2 °C 11.2 °C 1011.6 hPa SO 7.2 km/h 12.9 km/h 53% 0.0 mm
03:24 21.2 °C 11.2 °C 1011.6 hPa SO 7.6 km/h 11.3 km/h 53% 0.0 mm
03:29 21.2 °C 11.2 °C 1011.6 hPa SSE 5.9 km/h 9.5 km/h 53% 0.0 mm
03:34 21 °C 11.4 °C 1011.6 hPa SE 5 km/h 11.1 km/h 54% 0.0 mm
03:39 20.6 °C 11.3 °C 1011.6 hPa SSE 6 km/h 11.3 km/h 55.2% 0.0 mm
03:44 20.4 °C 11.3 °C 1011.6 hPa Sur 6.5 km/h 13 km/h 55.7% 0.0 mm
03:49 20.5 °C 11.2 °C 1011.6 hPa SSO 6.8 km/h 13 km/h 55% 0.0 mm
03:54 20.6 °C 11.2 °C 1011.6 hPa SSO 6.9 km/h 14.8 km/h 55% 0.0 mm
03:59 20.6 °C 11.2 °C 1011.6 hPa SSO 7.9 km/h 14.5 km/h 55% 0.0 mm
04:04 20.6 °C 11 °C 1011.6 hPa Sur 8.4 km/h 14.8 km/h 54.1% 0.0 mm
04:09 20.7 °C 11 °C 1011.6 hPa Sur 8.6 km/h 15.6 km/h 54% 0.0 mm
04:14 20.7 °C 11.1 °C 1011.6 hPa SSE 8.7 km/h 16.1 km/h 54% 0.0 mm
04:19 20.7 °C 11 °C 1011.6 hPa SSE 8.7 km/h 14.8 km/h 54% 0.0 mm
04:24 20.5 °C 10.9 °C 1011.6 hPa SSE 8.7 km/h 15.6 km/h 54.1% 0.0 mm
04:29 20.3 °C 11 °C 1011.6 hPa Sur 9.2 km/h 16.1 km/h 55% 0.0 mm
04:34 20.3 °C 10.9 °C 1011.6 hPa Sur 9.5 km/h 16.1 km/h 54.7% 0.0 mm
04:39 20.3 °C 10.7 °C 1011.6 hPa Sur 9.8 km/h 16.1 km/h 54% 0.0 mm
04:44 20.4 °C 10.4 °C 1011.6 hPa Sur 10 km/h 15.6 km/h 52.8% 0.0 mm
04:49 20.7 °C 10.1 °C 1011.6 hPa Sur 10 km/h 16.1 km/h 50.7% 0.0 mm
04:54 21 °C 9.7 °C 1011.6 hPa Sur 10 km/h 14.5 km/h 48.5% 0.0 mm
04:59 21.2 °C 9.4 °C 1011.7 hPa SSE 8.9 km/h 13 km/h 47% 0.0 mm
05:04 21.2 °C 9.4 °C 1011.7 hPa SSE 8.4 km/h 13.7 km/h 47% 0.0 mm
05:09 21.2 °C 9.6 °C 1011.7 hPa SE 8.6 km/h 14.5 km/h 47.8% 0.0 mm
05:14 21 °C 9.6 °C 1011.7 hPa SSO 8.7 km/h 12.9 km/h 48.3% 0.0 mm
05:19 20.9 °C 9.2 °C 1011.7 hPa Sur 7.2 km/h 14.8 km/h 47% 0.0 mm
05:24 21.1 °C 8.9 °C 1011.7 hPa SSE 6.5 km/h 16.4 km/h 45.6% 0.0 mm
05:29 21.3 °C 8.8 °C 1011.7 hPa SSE 8.8 km/h 16.7 km/h 44.8% 0.0 mm
05:34 21.3 °C 8.4 °C 1011.6 hPa Sur 10.3 km/h 16.1 km/h 43.6% 0.0 mm
05:39 21.4 °C 8.3 °C 1011.6 hPa Sur 10.1 km/h 14.5 km/h 43% 0.0 mm
05:44 21.4 °C 8 °C 1011.7 hPa Sur 10 km/h 12.9 km/h 42.1% 0.0 mm
05:49 21.5 °C 7.9 °C 1011.7 hPa SSO 8.9 km/h 13 km/h 41.5% 0.0 mm
05:54 21.7 °C 7.8 °C 1011.7 hPa SSO 8.4 km/h 13 km/h 40.8% 0.0 mm
05:59 21.8 °C 7.5 °C 1011.9 hPa Sur 8.4 km/h 14 km/h 39.6% 0.0 mm
06:04 22.1 °C 7.2 °C 1011.9 hPa Sur 8.4 km/h 14.8 km/h 38.4% 0.0 mm
06:09 22.2 °C 7.2 °C 1011.9 hPa Sur 9.4 km/h 14.5 km/h 38% 0.0 mm
06:14 22.2 °C 7.2 °C 1011.9 hPa Sur 10 km/h 13 km/h 38% 0.0 mm
06:19 22.2 °C 7.2 °C 1011.9 hPa Sur 9.2 km/h 14.8 km/h 38% 0.0 mm
06:24 22.1 °C 7.4 °C 1011.9 hPa Sur 8.7 km/h 14.5 km/h 38.7% 0.0 mm
06:29 22 °C 7.3 °C 1011.9 hPa SSO 9.2 km/h 14.5 km/h 38.8% 0.0 mm
06:34 21.9 °C 7.3 °C 1011.8 hPa Sur 9.5 km/h 13 km/h 38.9% 0.0 mm
06:39 21.8 °C 7.3 °C 1011.8 hPa SSO 7 km/h 12.9 km/h 39% 0.0 mm
06:44 21.8 °C 7.2 °C 1012.0 hPa SSO 5.8 km/h 12.2 km/h 39% 0.0 mm
06:49 21.7 °C 7.1 °C 1012.0 hPa SSO 7 km/h 13 km/h 39% 0.0 mm
06:54 21.6 °C 7.1 °C 1012.0 hPa Sur 7.6 km/h 13 km/h 39.1% 0.0 mm
06:59 21.6 °C 7.2 °C 1012.0 hPa Sur 7.6 km/h 13 km/h 39.4% 0.0 mm
07:04 21.5 °C 7.3 °C 1012.0 hPa Sur 7.6 km/h 12.9 km/h 40% 0.0 mm
07:09 21.4 °C 7.4 °C 1012.0 hPa Sur 8.1 km/h 11.3 km/h 40.4% 0.0 mm
07:14 21.4 °C 7.6 °C 1012.2 hPa Sur 8.4 km/h 11.3 km/h 41% 0.0 mm
07:19 21.3 °C 7.5 °C 1012.2 hPa Sur 7.1 km/h 9.5 km/h 41.1% 0.0 mm
07:24 21.3 °C 7.8 °C 1012.2 hPa SSE 6.5 km/h 9.7 km/h 42% 0.0 mm
07:29 21.2 °C 7.8 °C 1012.3 hPa SSE 5.6 km/h 8.4 km/h 42% 0.0 mm
07:34 21.1 °C 7.8 °C 1012.3 hPa SE 5 km/h 8.4 km/h 42.2% 0.0 mm
07:39 21.1 °C 8 °C 1012.3 hPa SSE 5 km/h 8.4 km/h 43% 0.0 mm
07:44 21.2 °C 8.1 °C 1012.4 hPa SE 5 km/h 8 km/h 43% 0.0 mm
07:49 21.2 °C 8.1 °C 1012.4 hPa SSE 4.8 km/h 8 km/h 43% 0.0 mm
07:54 21.2 °C 8.1 °C 1012.4 hPa SSE 4.6 km/h 10.3 km/h 43% 0.0 mm
07:59 21.3 °C 8.1 °C 1012.5 hPa Sur 5.8 km/h 11.1 km/h 42.8% 0.0 mm
08:04 21.3 °C 7.9 °C 1012.5 hPa SSE 6.5 km/h 11.3 km/h 42% 0.0 mm
08:09 21.4 °C 8 °C 1012.5 hPa Sur 6.5 km/h 9.7 km/h 42.1% 0.0 mm
08:14 21.5 °C 8.3 °C 1012.6 hPa SSO 6.5 km/h 9.7 km/h 42.5% 0.0 mm
08:19 21.7 °C 8.5 °C 1012.6 hPa Sur 5.4 km/h 8 km/h 43% 0.0 mm
08:24 21.8 °C 8.5 °C 1012.6 hPa Sur 4.7 km/h 10 km/h 42.5% 0.0 mm
08:29 22.1 °C 8.5 °C 1012.6 hPa SSO 4.6 km/h 9.7 km/h 42% 0.0 mm
08:34 22.2 °C 8.7 °C 1012.6 hPa SO 4.6 km/h 9.7 km/h 42% 0.0 mm
08:39 22.5 °C 8.9 °C 1012.6 hPa OSO 4.2 km/h 8 km/h 42% 0.0 mm
08:44 22.7 °C 9.3 °C 1012.6 hPa Oeste 3.9 km/h 8 km/h 42.3% 0.0 mm
08:49 22.9 °C 9.3 °C 1012.6 hPa Oeste 3.3 km/h 5.6 km/h 42% 0.0 mm
08:54 23.2 °C 9.6 °C 1012.6 hPa OSO 2.9 km/h 5.8 km/h 42% 0.0 mm
08:59 23.4 °C 9.6 °C 1012.6 hPa OSO 2.5 km/h 6.4 km/h 41.3% 0.0 mm
09:04 23.7 °C 9.6 °C 1012.5 hPa SO 2.2 km/h 7.4 km/h 41% 0.0 mm
09:09 23.8 °C 9.8 °C 1012.5 hPa SO 2.9 km/h 8 km/h 41% 0.0 mm
09:14 23.9 °C 9.9 °C 1012.5 hPa SO 3.2 km/h 12.2 km/h 41% 0.0 mm
09:19 24 °C 10 °C 1012.5 hPa SO 5.4 km/h 13 km/h 41% 0.0 mm
09:24 24.1 °C 10.1 °C 1012.5 hPa SO 6.5 km/h 14.5 km/h 41.3% 0.0 mm
09:29 24.3 °C 10.3 °C 1012.5 hPa SO 7.2 km/h 13 km/h 41.2% 0.0 mm
09:34 24.5 °C 10.3 °C 1012.5 hPa SSO 7.6 km/h 12.9 km/h 41% 0.0 mm
09:39 24.7 °C 10.5 °C 1012.5 hPa SSO 7.6 km/h 14 km/h 40.9% 0.0 mm
09:44 24.9 °C 10.5 °C 1012.5 hPa SSO 7.6 km/h 14.8 km/h 40.5% 0.0 mm
09:49 25.2 °C 10.7 °C 1012.4 hPa SSO 8.1 km/h 14.5 km/h 40.1% 0.0 mm
09:54 25.4 °C 10.8 °C 1012.4 hPa SO 8.4 km/h 13 km/h 40% 0.0 mm
09:59 25.6 °C 10.7 °C 1012.4 hPa SSO 7.8 km/h 19 km/h 39.3% 0.0 mm
10:04 25.7 °C 10.7 °C 1012.3 hPa SSO 7.6 km/h 19.3 km/h 39% 0.0 mm
10:09 25.9 °C 10.9 °C 1012.3 hPa SO 8.3 km/h 16.4 km/h 39% 0.0 mm
10:14 26.1 °C 11 °C 1012.3 hPa OSO 8.7 km/h 16.7 km/h 39% 0.0 mm
10:19 26.2 °C 11.1 °C 1012.2 hPa SO 9.2 km/h 16.1 km/h 38.8% 0.0 mm
10:24 26.4 °C 11 °C 1012.2 hPa OSO 9.5 km/h 14.8 km/h 38% 0.0 mm
10:29 26.7 °C 11.2 °C 1012.2 hPa SO 7.9 km/h 14.5 km/h 38% 0.0 mm
10:34 26.8 °C 11.3 °C 1012.0 hPa OSO 6.9 km/h 20.4 km/h 38% 0.0 mm
10:39 26.8 °C 11.3 °C 1012.0 hPa SSO 7.8 km/h 20.9 km/h 37.9% 0.0 mm
10:44 27.1 °C 11.2 °C 1012.0 hPa SSO 8.4 km/h 13 km/h 37.2% 0.0 mm
10:49 27.3 °C 11.1 °C 1012.0 hPa OSO 7.5 km/h 14.8 km/h 36.4% 0.0 mm
10:54 27.4 °C 11 °C 1012.0 hPa OSO 6.9 km/h 14.5 km/h 36% 0.0 mm
10:59 27.7 °C 11.2 °C 1012.0 hPa SO 7.3 km/h 13 km/h 35.8% 0.0 mm
11:04 27.9 °C 11 °C 1012.0 hPa SSO 7.6 km/h 11.9 km/h 35% 0.0 mm
11:09 27.9 °C 11 °C 1012.0 hPa SO 8.1 km/h 14.8 km/h 35% 0.0 mm
11:14 28 °C 11.2 °C 1012.0 hPa Sur 8.4 km/h 14.8 km/h 35% 0.0 mm
11:19 28.2 °C 11.2 °C 1012.0 hPa OSO 7.4 km/h 15.6 km/h 34.7% 0.0 mm
11:24 28.4 °C 11 °C 1012.0 hPa Oeste 6.9 km/h 20.4 km/h 34.1% 0.0 mm
11:29 28.5 °C 11.1 °C 1012.0 hPa SO 8.1 km/h 20.9 km/h 34% 0.0 mm
11:34 28.4 °C 11 °C 1012.0 hPa SO 8.7 km/h 20.9 km/h 34% 0.0 mm
11:39 28.5 °C 11.1 °C 1012.0 hPa SSO 7.9 km/h 16.1 km/h 34% 0.0 mm
11:44 28.7 °C 10.8 °C 1012.0 hPa ONO 7.6 km/h 11.1 km/h 32.8% 0.0 mm
11:49 29.1 °C 11.1 °C 1012.0 hPa ONO 7.6 km/h 13.7 km/h 32.8% 0.0 mm
11:54 29.3 °C 11 °C 1012.0 hPa SO 7.6 km/h 14.8 km/h 32.3% 0.0 mm
11:59 29.5 °C 11.1 °C 1012.0 hPa OSO 8.1 km/h 14.5 km/h 32% 0.0 mm
12:04 29.6 °C 11.2 °C 1012.0 hPa ONO 8.4 km/h 14.8 km/h 32% 0.0 mm
12:09 29.8 °C 11.1 °C 1012.0 hPa Oeste 7.4 km/h 14.5 km/h 31.7% 0.0 mm
12:14 29.9 °C 10.8 °C 1012.0 hPa SSO 6.9 km/h 14.8 km/h 30.7% 0.0 mm
12:19 30 °C 10.3 °C 1011.9 hPa SSO 6.9 km/h 14.8 km/h 29.5% 0.0 mm
12:24 30.1 °C 10.1 °C 1011.9 hPa SO 6.9 km/h 14.8 km/h 29% 0.0 mm
12:29 30.3 °C 10.2 °C 1011.9 hPa SSO 7.9 km/h 14.8 km/h 29% 0.0 mm
12:34 30.3 °C 10.3 °C 1011.8 hPa SSO 8.4 km/h 14.5 km/h 29% 0.0 mm
12:39 30.4 °C 10.2 °C 1011.8 hPa SSE 7.1 km/h 14.8 km/h 28.8% 0.0 mm
12:44 30.5 °C 10.3 °C 1011.8 hPa SSE 6.5 km/h 14.8 km/h 28.7% 0.0 mm
12:49 30.7 °C 10.1 °C 1011.7 hPa SSO 6.5 km/h 16.4 km/h 28% 0.0 mm
12:54 30.9 °C 10.1 °C 1011.7 hPa SSO 6.5 km/h 16.7 km/h 27.6% 0.0 mm
12:58 31.1 °C 9.9 °C 1011.7 hPa SSE 7.1 km/h 16.1 km/h 27% 0.0 mm
14:24 33.3 °C 9.4 °C 1010.7 hPa NE 4.7 km/h 13 km/h 23.1% 0.0 mm
14:29 33.5 °C 9.4 °C 1010.7 hPa ESE 4.6 km/h 12.9 km/h 22.9% 0.0 mm
14:34 33.7 °C 8.1 °C 1010.4 hPa SSO 4.7 km/h 18 km/h 20.7% 0.0 mm
14:39 33.6 °C 7.5 °C 1010.4 hPa OSO 6.5 km/h 19.3 km/h 20% 0.0 mm
14:44 33.4 °C 7.7 °C 1010.4 hPa Oeste 8.4 km/h 16.1 km/h 20.4% 0.0 mm
14:49 33.3 °C 7.7 °C 1010.2 hPa SSE 7.4 km/h 11.3 km/h 20.6% 0.0 mm
14:54 33.3 °C 8 °C 1010.2 hPa Este 6.5 km/h 13 km/h 21% 0.0 mm
14:59 33.2 °C 8 °C 1010.2 hPa Sur 7 km/h 16.7 km/h 21% 0.0 mm
15:04 33.4 °C 8 °C 1010.0 hPa SE 7.6 km/h 16.1 km/h 20.9% 0.0 mm
15:09 33.6 °C 7.9 °C 1010.0 hPa ESE 8 km/h 14.5 km/h 20.5% 0.0 mm
15:14 33.8 °C 8 °C 1010.0 hPa Sur 8.4 km/h 22.2 km/h 20.4% 0.0 mm
15:19 33.8 °C 8 °C 1009.6 hPa Sur 9.7 km/h 22.5 km/h 20.4% 0.0 mm
15:24 33.8 °C 8.2 °C 1009.6 hPa Sur 11.1 km/h 22.5 km/h 20.6% 0.0 mm
15:29 34.1 °C 8.2 °C 1009.6 hPa Sur 11.1 km/h 22.5 km/h 20.4% 0.0 mm
15:34 34.3 °C 8.4 °C 1009.5 hPa Sur 11.1 km/h 19.3 km/h 20.4% 0.0 mm
15:39 34.3 °C 8.4 °C 1009.5 hPa SE 9.3 km/h 18.5 km/h 20.4% 0.0 mm
15:44 34.3 °C 8.9 °C 1009.5 hPa ESE 6.9 km/h 27.8 km/h 21% 0.0 mm
15:49 34.2 °C 8.8 °C 1009.2 hPa ESE 10.8 km/h 30.6 km/h 21% 0.0 mm
15:54 34.1 °C 8.7 °C 1009.2 hPa ESE 14.8 km/h 35.9 km/h 21% 0.0 mm
15:59 34.2 °C 8.6 °C 1009.2 hPa ESE 16.6 km/h 35.4 km/h 20.8% 0.0 mm
16:04 34.2 °C 8.2 °C 1008.8 hPa ESE 18 km/h 27.4 km/h 20.3% 0.0 mm
16:09 34.1 °C 8.1 °C 1008.8 hPa SE 16.4 km/h 27.8 km/h 20.2% 0.0 mm
16:14 34.1 °C 8 °C 1008.8 hPa SE 14.8 km/h 27.4 km/h 20% 0.0 mm
16:19 34.1 °C 8 °C 1008.7 hPa SSE 15.4 km/h 28.6 km/h 20% 0.0 mm
16:24 34 °C 7.9 °C 1008.7 hPa SE 16.1 km/h 31.5 km/h 20% 0.0 mm
16:29 33.9 °C 7.8 °C 1008.7 hPa SE 17.1 km/h 32.2 km/h 20% 0.0 mm
16:34 34.2 °C 8 °C 1008.7 hPa ESE 18.4 km/h 32.2 km/h 20% 0.0 mm
16:39 34.3 °C 8.1 °C 1008.7 hPa SE 17.1 km/h 27.8 km/h 20% 0.0 mm
16:44 34.2 °C 8 °C 1008.7 hPa SE 15.6 km/h 27.8 km/h 20% 0.0 mm
16:49 34.2 °C 8 °C 1008.6 hPa SSE 16.3 km/h 35.2 km/h 20% 0.0 mm
16:54 34 °C 7.9 °C 1008.6 hPa SSE 17.2 km/h 35.4 km/h 20% 0.0 mm
16:59 34.1 °C 8 °C 1008.6 hPa SSE 18.5 km/h 30.6 km/h 20.1% 0.0 mm
17:04 34 °C 7.9 °C 1008.4 hPa SE 19.8 km/h 31.5 km/h 20% 0.0 mm
17:09 34.2 °C 8.2 °C 1008.4 hPa SSE 18 km/h 32.2 km/h 20.3% 0.0 mm
17:14 34.1 °C 8.4 °C 1008.4 hPa SSE 16.1 km/h 34.6 km/h 20.6% 0.0 mm
17:19 34.1 °C 8.6 °C 1008.3 hPa SE 16.6 km/h 35.4 km/h 20.9% 0.0 mm
17:24 33.8 °C 8.3 °C 1008.3 hPa SE 17.2 km/h 33.3 km/h 20.8% 0.0 mm
17:29 33.6 °C 8.3 °C 1008.3 hPa SSE 18.1 km/h 33.8 km/h 21% 0.0 mm
17:34 33.7 °C 8.3 °C 1008.2 hPa SSE 19 km/h 33.8 km/h 21% 0.0 mm
17:39 33.8 °C 8.5 °C 1008.2 hPa SE 18.5 km/h 33.8 km/h 21% 0.0 mm
17:44 33.8 °C 8.4 °C 1008.2 hPa SE 18 km/h 29.6 km/h 21% 0.0 mm
17:49 33.7 °C 8.3 °C 1008.2 hPa SE 18.5 km/h 30.6 km/h 21% 0.0 mm
17:54 33.5 °C 8.2 °C 1008.2 hPa SE 19 km/h 30.6 km/h 21% 0.0 mm
17:59 33.3 °C 8 °C 1008.2 hPa SE 18.5 km/h 29.6 km/h 21% 0.0 mm
18:04 33.2 °C 8.1 °C 1008.2 hPa SE 18 km/h 29 km/h 21.3% 0.0 mm
18:09 33.2 °C 8.3 °C 1008.2 hPa ESE 17.6 km/h 31.7 km/h 21.5% 0.0 mm
18:14 32.8 °C 8 °C 1008.2 hPa ESE 17.2 km/h 32.2 km/h 21.6% 0.0 mm
18:19 32.8 °C 8.3 °C 1008.2 hPa ESE 18.7 km/h 31.7 km/h 22% 0.0 mm
18:24 32.7 °C 8.2 °C 1008.2 hPa SE 20.1 km/h 35.9 km/h 22% 0.0 mm
18:29 32.6 °C 8.1 °C 1008.3 hPa SE 20 km/h 35.4 km/h 22% 0.0 mm
18:34 32.7 °C 8.2 °C 1008.3 hPa SE 19.8 km/h 29.8 km/h 22% 0.0 mm
18:39 32.8 °C 8.3 °C 1008.3 hPa SE 18 km/h 30.6 km/h 22% 0.0 mm
18:44 32.6 °C 8.5 °C 1008.3 hPa SE 16.1 km/h 29 km/h 22.6% 0.0 mm
18:49 32.3 °C 8.5 °C 1008.2 hPa SE 16.6 km/h 29.6 km/h 23% 0.0 mm
18:54 32 °C 8.3 °C 1008.2 hPa SE 17.2 km/h 29.6 km/h 23% 0.0 mm
18:59 31.8 °C 8.7 °C 1008.2 hPa SE 17.2 km/h 27.8 km/h 23.9% 0.0 mm
19:04 31.8 °C 8.7 °C 1008.2 hPa SE 17.2 km/h 27.4 km/h 24% 0.0 mm
19:09 31.7 °C 8.7 °C 1008.2 hPa SE 15.5 km/h 25.9 km/h 24% 0.0 mm
19:14 31.6 °C 8.6 °C 1008.3 hPa SE 14 km/h 19.3 km/h 24% 0.0 mm
19:19 31.5 °C 8.5 °C 1008.3 hPa SSE 12.1 km/h 19.3 km/h 24% 0.0 mm
19:24 31.4 °C 8.6 °C 1008.3 hPa SSE 10.3 km/h 18.3 km/h 24.2% 0.0 mm
19:29 31.4 °C 8.4 °C 1008.4 hPa SSE 9.6 km/h 19.3 km/h 24% 0.0 mm
19:34 31.3 °C 8.6 °C 1008.4 hPa SSE 8.7 km/h 19.3 km/h 24.5% 0.0 mm
19:39 31.2 °C 8.7 °C 1008.4 hPa Sur 9.1 km/h 16.7 km/h 24.8% 0.0 mm
19:44 31.1 °C 8.7 °C 1008.4 hPa Sur 9.5 km/h 16.1 km/h 25% 0.0 mm
19:49 31.1 °C 8.7 °C 1008.4 hPa SSE 10.2 km/h 16.1 km/h 25% 0.0 mm
19:54 31.1 °C 8.7 °C 1008.4 hPa SSE 11.1 km/h 14.5 km/h 25% 0.0 mm
19:59 31 °C 8.7 °C 1008.4 hPa SSE 9.7 km/h 12.9 km/h 25% 0.0 mm
20:04 31.2 °C 8.5 °C 1008.4 hPa SSE 8.7 km/h 11.3 km/h 24.6% 0.0 mm
20:09 31.2 °C 8.2 °C 1008.4 hPa SSE 8.1 km/h 11.9 km/h 24% 0.0 mm
20:14 31.3 °C 8.4 °C 1008.4 hPa SSE 7.6 km/h 11.3 km/h 24.1% 0.0 mm
20:19 31.5 °C 8.6 °C 1008.4 hPa SSE 6.6 km/h 10 km/h 24.2% 0.0 mm
20:24 31.6 °C 8.2 °C 1008.4 hPa Sur 5.8 km/h 14.8 km/h 23.4% 0.0 mm
20:29 31.5 °C 7.8 °C 1008.5 hPa SSO 6.6 km/h 14.5 km/h 23% 0.0 mm
20:34 31.5 °C 7.8 °C 1008.5 hPa SSO 7.6 km/h 11.9 km/h 23% 0.0 mm
20:39 31.4 °C 7.8 °C 1008.5 hPa SO 7.6 km/h 13.7 km/h 23% 0.0 mm
20:44 31.3 °C 8 °C 1008.8 hPa OSO 7.6 km/h 15.6 km/h 23.5% 0.0 mm
20:49 31.1 °C 8.8 °C 1008.8 hPa SSO 7.9 km/h 16.1 km/h 25% 0.0 mm
20:54 30.8 °C 8.5 °C 1008.8 hPa SO 8.4 km/h 15.6 km/h 25% 0.0 mm
20:59 30.5 °C 8.2 °C 1008.8 hPa SO 8.4 km/h 16.1 km/h 25% 0.0 mm
21:04 30.3 °C 8 °C 1008.8 hPa SSO 8.4 km/h 15.6 km/h 25% 0.0 mm
21:09 30.1 °C 7.9 °C 1008.8 hPa SSO 8 km/h 16.1 km/h 25% 0.0 mm
21:14 29.8 °C 7.7 °C 1008.9 hPa SO 7.6 km/h 16.4 km/h 25% 0.0 mm
21:19 29.7 °C 7.5 °C 1008.9 hPa SO 8.1 km/h 19.8 km/h 25.1% 0.0 mm
21:24 29.3 °C 7.8 °C 1008.9 hPa SSO 8.7 km/h 20.9 km/h 25.9% 0.0 mm
21:29 29.2 °C 7.7 °C 1009.1 hPa SSO 9.9 km/h 20.9 km/h 26% 0.0 mm
21:34 28.9 °C 7.5 °C 1009.1 hPa Sur 11.1 km/h 35.2 km/h 26% 0.0 mm
21:39 28.8 °C 7.8 °C 1009.1 hPa SSO 12.8 km/h 35.4 km/h 26.9% 0.0 mm
21:44 28.6 °C 7.8 °C 1009.1 hPa SSO 14.8 km/h 30.6 km/h 27% 0.0 mm
21:49 28.5 °C 7.7 °C 1009.1 hPa Sur 14.4 km/h 30.6 km/h 27% 0.0 mm
21:54 28.5 °C 7.7 °C 1009.1 hPa OSO 14 km/h 22.5 km/h 27% 0.0 mm
21:59 28.5 °C 7.7 °C 1009.4 hPa SSO 10.4 km/h 18.5 km/h 27% 0.0 mm
22:04 28.5 °C 7.8 °C 1009.4 hPa SSO 7.6 km/h 19.3 km/h 27.3% 0.0 mm
22:09 28.4 °C 8.1 °C 1009.4 hPa SO 7 km/h 14.5 km/h 28% 0.0 mm
22:14 28.4 °C 8.1 °C 1009.7 hPa SO 6.5 km/h 8.4 km/h 28% 0.0 mm
22:19 28.3 °C 8.1 °C 1009.7 hPa SO 5.6 km/h 9.3 km/h 28% 0.0 mm
22:24 28.2 °C 8 °C 1009.7 hPa SSO 4.7 km/h 13 km/h 28% 0.0 mm
22:29 28.1 °C 8.2 °C 1009.9 hPa Sur 6 km/h 17.2 km/h 28.6% 0.0 mm
22:34 27.9 °C 8.2 °C 1009.9 hPa Sur 7.6 km/h 24.1 km/h 29.1% 0.0 mm
22:39 27.6 °C 8.5 °C 1009.9 hPa Sur 9.2 km/h 24.1 km/h 30% 0.0 mm
22:44 27.3 °C 8.5 °C 1010.1 hPa SSO 11.1 km/h 24.1 km/h 30.5% 0.0 mm
22:49 27.2 °C 8.6 °C 1010.1 hPa Sur 10.7 km/h 16.1 km/h 31% 0.0 mm
22:54 27.1 °C 8.5 °C 1010.1 hPa Sur 10.3 km/h 16.1 km/h 31% 0.0 mm
22:59 27.1 °C 8.8 °C 1010.3 hPa Sur 9.5 km/h 16.7 km/h 31.7% 0.0 mm
23:04 26.9 °C 8.8 °C 1010.3 hPa SSO 8.7 km/h 16.1 km/h 32% 0.0 mm
23:09 26.9 °C 8.8 °C 1010.3 hPa SSO 7.9 km/h 18 km/h 32% 0.0 mm
23:14 26.8 °C 8.8 °C 1010.4 hPa SSO 6.9 km/h 19.3 km/h 32.1% 0.0 mm
23:19 26.8 °C 9.1 °C 1010.4 hPa SO 7.6 km/h 19.3 km/h 32.8% 0.0 mm
23:24 26.7 °C 9.1 °C 1010.4 hPa SSO 8.4 km/h 14.8 km/h 33% 0.0 mm
23:29 26.5 °C 8.9 °C 1010.6 hPa Sur 7.7 km/h 14.5 km/h 33% 0.0 mm
23:34 26.3 °C 9.1 °C 1010.6 hPa Sur 6.9 km/h 15.6 km/h 33.8% 0.0 mm
23:39 26.2 °C 9.1 °C 1010.6 hPa SSE 8.1 km/h 16.1 km/h 34% 0.0 mm
23:44 26.1 °C 9.1 °C 1010.8 hPa Sur 9.5 km/h 14.5 km/h 34.2% 0.0 mm
23:49 26 °C 9.4 °C 1010.8 hPa Sur 8.9 km/h 14.8 km/h 35% 0.0 mm
23:54 25.9 °C 9.3 °C 1010.8 hPa SSO 8.4 km/h 14.8 km/h 35% 0.0 mm
23:59 25.9 °C 9.3 °C 1010.8 hPa SSO 7.9 km/h 14.5 km/h 35% 0.0 mm
Murcia-Puente Tocinos, España
Compliments of Weather Underground - 2.75 mb

La estación de MeteoMurcia.com, publica sus datos en los siguientes proyectos:

Weather Underground PWS IMURCIAP2 Meteoclimatic www.awekas.at

W3Counter
Web Analytics